createdAt,value
2023-04-19T00:02:18.887Z,99.90
2023-04-19T00:04:47.821Z,99.90
2023-04-19T00:07:17.305Z,99.90
2023-04-19T00:09:44.961Z,99.90
2023-04-19T00:12:12.433Z,99.90
2023-04-19T00:14:39.942Z,99.90
2023-04-19T00:17:07.530Z,99.90
2023-04-19T00:19:35.118Z,99.90
2023-04-19T00:22:02.671Z,99.90
2023-04-19T00:24:30.849Z,99.90
2023-04-19T00:26:59.453Z,99.90
2023-04-19T00:29:27.192Z,99.90
2023-04-19T00:31:54.744Z,99.90
2023-04-19T00:34:22.289Z,99.90
2023-04-19T00:36:49.922Z,99.90
2023-04-19T00:39:17.548Z,99.90
2023-04-19T00:41:45.069Z,99.90
2023-04-19T00:44:12.784Z,99.90
2023-04-19T00:46:40.955Z,99.90
2023-04-19T00:49:09.413Z,99.90
2023-04-19T00:51:37.412Z,99.90
2023-04-19T00:54:05.088Z,99.90
2023-04-19T00:56:34.855Z,99.90
2023-04-19T00:59:03.309Z,99.90
2023-04-19T01:01:32.522Z,99.90
2023-04-19T01:04:02.107Z,99.90
2023-04-19T01:06:30.812Z,99.90
2023-04-19T01:08:58.576Z,99.90
2023-04-19T01:11:27.127Z,99.90
2023-04-19T01:13:55.930Z,99.90
2023-04-19T01:16:24.102Z,99.90
2023-04-19T01:18:52.178Z,99.90
2023-04-19T01:21:19.967Z,99.90
2023-04-19T01:23:47.454Z,99.90
2023-04-19T01:26:14.977Z,99.90
2023-04-19T01:28:42.549Z,99.90
2023-04-19T01:31:10.027Z,99.90
2023-04-19T01:33:37.620Z,99.90
2023-04-19T01:36:05.577Z,99.90
2023-04-19T01:38:33.142Z,99.90
2023-04-19T01:41:00.730Z,99.90
2023-04-19T01:43:28.269Z,99.90
2023-04-19T01:45:55.882Z,99.90
2023-04-19T01:48:23.403Z,99.90
2023-04-19T01:50:51.053Z,99.90
2023-04-19T01:53:18.575Z,99.90
2023-04-19T01:55:46.492Z,99.90
2023-04-19T01:58:14.035Z,99.90
2023-04-19T02:00:41.659Z,99.90
2023-04-19T02:03:09.358Z,99.90
2023-04-19T02:05:39.677Z,99.90
2023-04-19T02:08:07.701Z,99.90
2023-04-19T02:10:35.507Z,99.90
2023-04-19T02:13:03.031Z,99.90
2023-04-19T02:15:30.679Z,99.90
2023-04-19T02:18:00.374Z,99.90
2023-04-19T02:20:28.150Z,99.90
2023-04-19T02:22:55.672Z,99.90
2023-04-19T02:25:23.235Z,99.90
2023-04-19T02:27:51.205Z,99.90
2023-04-19T02:30:18.895Z,99.90
2023-04-19T02:32:48.742Z,99.90
2023-04-19T02:35:17.381Z,99.90
2023-04-19T02:37:45.490Z,99.90
2023-04-19T02:40:13.042Z,99.90
2023-04-19T02:42:40.608Z,99.90
2023-04-19T02:45:08.909Z,99.90
2023-04-19T02:47:36.593Z,99.90
2023-04-19T02:50:04.468Z,99.90
2023-04-19T02:52:31.992Z,99.90
2023-04-19T02:54:59.439Z,99.90
2023-04-19T02:57:26.979Z,99.90
2023-04-19T02:59:54.482Z,99.90
2023-04-19T03:02:22.127Z,99.90
2023-04-19T03:04:49.992Z,99.90
2023-04-19T03:07:17.596Z,99.90
2023-04-19T03:09:45.124Z,99.90
2023-04-19T03:12:12.668Z,99.90
2023-04-19T03:14:40.146Z,99.90
2023-04-19T03:17:07.669Z,99.90
2023-04-19T03:19:35.299Z,99.90
2023-04-19T03:22:02.787Z,99.90
2023-04-19T03:24:31.280Z,99.90
2023-04-19T03:26:59.248Z,99.90
2023-04-19T03:29:26.741Z,99.90
2023-04-19T03:31:54.288Z,99.90
2023-04-19T03:34:21.846Z,99.90
2023-04-19T03:36:49.505Z,99.90
2023-04-19T03:39:16.999Z,99.90
2023-04-19T03:41:44.557Z,99.90
2023-04-19T03:44:12.066Z,99.90
2023-04-19T03:46:39.584Z,99.90
2023-04-19T03:49:07.559Z,99.90
2023-04-19T03:51:35.089Z,99.90
2023-04-19T03:54:02.998Z,99.90
2023-04-19T03:56:30.619Z,99.90
2023-04-19T03:58:58.413Z,99.90
2023-04-19T04:01:27.137Z,99.90
2023-04-19T04:03:54.979Z,99.90
2023-04-19T04:06:22.588Z,99.90
2023-04-19T04:08:50.064Z,99.90
2023-04-19T04:11:17.646Z,99.90
2023-04-19T04:13:46.675Z,99.90
2023-04-19T04:16:14.259Z,99.90
2023-04-19T04:18:42.153Z,99.90
2023-04-19T04:21:09.944Z,99.90
2023-04-19T04:23:38.122Z,99.90
2023-04-19T04:26:06.393Z,99.90
2023-04-19T04:28:34.005Z,99.90
2023-04-19T04:31:01.640Z,99.90
2023-04-19T04:33:29.299Z,99.90
2023-04-19T04:35:57.967Z,99.90
2023-04-19T04:38:25.848Z,99.90
2023-04-19T04:40:54.947Z,99.90
2023-04-19T04:43:24.273Z,99.90
2023-04-19T04:45:52.157Z,99.90
2023-04-19T04:48:20.067Z,99.90
2023-04-19T04:50:47.556Z,99.90
2023-04-19T04:53:15.345Z,99.90
2023-04-19T04:55:42.822Z,99.90
2023-04-19T04:58:10.681Z,99.90
2023-04-19T05:00:38.098Z,99.90
2023-04-19T05:03:05.887Z,99.90
2023-04-19T05:05:34.316Z,99.90
2023-04-19T05:08:01.924Z,99.90
2023-04-19T05:10:29.357Z,99.90
2023-04-19T05:12:57.053Z,99.90
2023-04-19T05:15:24.576Z,99.90
2023-04-19T05:17:52.125Z,99.90
2023-04-19T05:20:19.679Z,99.90
2023-04-19T05:22:47.038Z,99.90
2023-04-19T05:25:14.653Z,99.90
2023-04-19T05:27:42.047Z,99.90
2023-04-19T05:30:09.635Z,99.90
2023-04-19T05:32:37.245Z,99.90
2023-04-19T05:35:05.109Z,99.90
2023-04-19T05:37:32.497Z,99.90
2023-04-19T05:39:59.919Z,99.90
2023-04-19T05:42:27.294Z,99.90
2023-04-19T05:44:54.699Z,99.90
2023-04-19T05:47:22.414Z,99.90
2023-04-19T05:49:49.871Z,99.90
2023-04-19T05:52:17.287Z,99.90
2023-04-19T05:54:45.182Z,99.90
2023-04-19T05:57:13.218Z,99.90
2023-04-19T05:59:41.737Z,99.90
2023-04-19T06:02:09.667Z,99.90
2023-04-19T06:04:37.543Z,99.90
2023-04-19T06:07:10.535Z,99.90
2023-04-19T06:09:45.417Z,99.90
2023-04-19T06:12:12.855Z,99.90
2023-04-19T06:14:40.368Z,99.90
2023-04-19T06:17:07.871Z,99.90
2023-04-19T06:19:35.325Z,99.90
2023-04-19T06:22:02.692Z,99.90
2023-04-19T06:24:30.093Z,99.90
2023-04-19T06:26:58.002Z,99.90
2023-04-19T06:29:26.152Z,99.90
2023-04-19T06:31:53.874Z,99.90
2023-04-19T06:34:21.724Z,99.90
2023-04-19T06:36:49.134Z,99.90
2023-04-19T06:39:18.008Z,99.90
2023-04-19T06:41:45.713Z,99.90
2023-04-19T06:44:13.681Z,99.90
2023-04-19T06:46:41.492Z,99.90
2023-04-19T06:49:08.873Z,99.90
2023-04-19T06:51:36.395Z,99.90
2023-04-19T06:54:04.164Z,99.90
2023-04-19T06:56:45.933Z,99.90
2023-04-19T06:59:18.321Z,99.90
2023-04-19T07:01:47.264Z,99.90
2023-04-19T07:04:15.678Z,99.90
2023-04-19T07:06:43.527Z,99.90
2023-04-19T07:09:10.951Z,99.90
2023-04-19T07:11:38.313Z,99.90
2023-04-19T07:14:05.997Z,99.90
2023-04-19T07:16:34.017Z,99.90
2023-04-19T07:19:01.432Z,99.90
2023-04-19T07:21:33.025Z,99.90
2023-04-19T07:24:00.462Z,99.90
2023-04-19T07:26:27.937Z,99.90
2023-04-19T07:28:56.181Z,99.90
2023-04-19T07:31:25.039Z,99.90
2023-04-19T07:33:52.677Z,99.90
2023-04-19T07:36:21.510Z,99.90
2023-04-19T07:38:49.806Z,99.90
2023-04-19T07:41:18.292Z,99.90
2023-04-19T07:43:45.866Z,99.90
2023-04-19T07:46:16.142Z,99.90
2023-04-19T07:48:43.784Z,99.90
2023-04-19T07:51:17.829Z,99.90
2023-04-19T07:53:47.703Z,99.90
2023-04-19T07:56:15.764Z,99.90
2023-04-19T07:58:44.004Z,99.90
2023-04-19T08:01:12.851Z,99.90
2023-04-19T08:03:40.520Z,99.90
2023-04-19T08:06:09.188Z,98.20
2023-04-19T08:08:37.285Z,98.30
2023-04-19T08:11:06.245Z,99.90
2023-04-19T08:13:33.856Z,99.90
2023-04-19T08:18:32.262Z,98.00
2023-04-19T08:20:59.959Z,97.20
2023-04-19T08:23:37.884Z,95.80
2023-04-19T08:26:12.803Z,95.70
2023-04-19T08:28:40.334Z,95.80
2023-04-19T08:31:08.097Z,98.30
2023-04-19T08:33:35.763Z,97.10
2023-04-19T08:36:03.486Z,94.90
2023-04-19T08:38:30.974Z,94.10
2023-04-19T08:40:58.467Z,93.30
2023-04-19T08:43:28.891Z,93.60
2023-04-19T08:45:57.748Z,92.20
2023-04-19T08:48:27.104Z,88.30
2023-04-19T08:51:04.519Z,85.60
2023-04-19T08:53:36.008Z,88.10
2023-04-19T08:58:51.945Z,91.20
2023-04-19T09:04:04.922Z,91.20
2023-04-19T09:06:41.271Z,89.70
2023-04-19T09:11:58.264Z,78.80
2023-04-19T09:14:27.193Z,78.80
2023-04-19T09:16:54.837Z,80.00
2023-04-19T09:19:25.309Z,79.40
2023-04-19T09:21:54.879Z,79.80
2023-04-19T09:27:28.442Z,89.10
2023-04-19T09:29:57.529Z,91.40
2023-04-19T09:32:26.596Z,95.50
2023-04-19T09:34:58.212Z,95.20
2023-04-19T09:37:56.686Z,93.80
2023-04-19T09:40:28.450Z,91.30
2023-04-19T09:45:42.172Z,86.00
2023-04-19T09:48:10.667Z,83.60
2023-04-19T09:51:03.704Z,86.30
2023-04-19T09:53:35.258Z,89.40
2023-04-19T09:56:03.889Z,90.00
2023-04-19T09:58:46.115Z,88.50
2023-04-19T10:01:18.934Z,90.20
2023-04-19T10:03:50.644Z,90.10
2023-04-19T10:08:51.286Z,84.90
2023-04-19T10:11:22.217Z,82.50
2023-04-19T10:13:54.138Z,82.80
2023-04-19T10:16:21.916Z,80.70
2023-04-19T10:18:50.649Z,80.10
2023-04-19T10:21:20.712Z,79.80
2023-04-19T10:23:48.801Z,78.50
2023-04-19T10:26:16.606Z,78.10
2023-04-19T10:28:44.104Z,79.10
2023-04-19T10:31:14.793Z,76.60
2023-04-19T10:33:42.667Z,79.20
2023-04-19T10:36:11.863Z,78.30
2023-04-19T10:38:49.116Z,80.80
2023-04-19T10:41:18.948Z,80.50
2023-04-19T10:43:55.650Z,83.90
2023-04-19T10:46:23.412Z,85.80
2023-04-19T10:48:53.832Z,87.40
2023-04-19T10:51:24.190Z,88.70
2023-04-19T10:53:56.800Z,84.80
2023-04-19T10:56:33.228Z,82.50
2023-04-19T10:59:11.657Z,84.00
2023-04-19T11:01:45.475Z,85.00
2023-04-19T11:04:19.176Z,84.10
2023-04-19T11:06:52.917Z,80.70
2023-04-19T11:09:42.459Z,78.80
2023-04-19T11:12:13.582Z,77.60
2023-04-19T11:14:46.713Z,79.70
2023-04-19T11:17:25.625Z,81.00
2023-04-19T11:20:08.655Z,78.80
2023-04-19T11:22:38.499Z,79.30
2023-04-19T11:25:09.297Z,84.20
2023-04-19T11:27:38.596Z,80.80
2023-04-19T11:30:12.264Z,78.50
2023-04-19T11:32:49.840Z,76.40
2023-04-19T11:35:36.049Z,73.50
2023-04-19T11:38:05.257Z,71.50
2023-04-19T11:40:33.128Z,73.10
2023-04-19T11:43:02.528Z,73.30
2023-04-19T11:45:40.109Z,74.60
2023-04-19T11:48:18.021Z,75.00
2023-04-19T11:50:46.998Z,75.90
2023-04-19T11:53:24.813Z,75.60
2023-04-19T11:56:08.934Z,74.00
2023-04-19T11:58:50.885Z,75.50
2023-04-19T12:01:22.187Z,76.10
2023-04-19T12:03:59.425Z,75.20
2023-04-19T12:06:33.403Z,77.20
2023-04-19T12:09:01.143Z,77.70
2023-04-19T12:11:44.857Z,78.40
2023-04-19T12:14:13.084Z,77.30
2023-04-19T12:16:40.965Z,80.80
2023-04-19T12:19:14.295Z,78.80
2023-04-19T12:21:41.788Z,80.10
2023-04-19T12:24:09.454Z,77.70
2023-04-19T12:26:37.223Z,76.20
2023-04-19T12:29:05.838Z,78.70
2023-04-19T12:31:33.762Z,77.10
2023-04-19T12:34:01.366Z,75.70
2023-04-19T12:36:30.549Z,76.40
2023-04-19T12:38:58.121Z,75.10
2023-04-19T12:41:25.988Z,78.90
2023-04-19T12:43:53.371Z,76.00
2023-04-19T12:46:20.828Z,74.00
2023-04-19T12:48:48.366Z,73.70
2023-04-19T12:51:15.779Z,74.00
2023-04-19T12:53:49.416Z,71.10
2023-04-19T12:56:17.558Z,71.60
2023-04-19T12:58:44.929Z,72.00
2023-04-19T13:01:12.417Z,72.60
2023-04-19T13:03:40.174Z,71.60
2023-04-19T13:06:07.909Z,71.80
2023-04-19T13:08:44.749Z,69.10
2023-04-19T13:11:15.505Z,69.70
2023-04-19T13:13:43.047Z,68.90
2023-04-19T13:16:11.187Z,68.30
2023-04-19T13:18:38.816Z,68.40
2023-04-19T13:21:08.290Z,67.30
2023-04-19T13:23:36.370Z,68.40
2023-04-19T13:26:03.859Z,65.00
2023-04-19T13:28:31.275Z,65.20
2023-04-19T13:30:58.894Z,65.90
2023-04-19T13:33:27.030Z,64.80
2023-04-19T13:35:54.466Z,63.00
2023-04-19T13:38:21.906Z,64.70
2023-04-19T13:40:49.391Z,62.40
2023-04-19T13:43:16.828Z,65.10
2023-04-19T13:45:44.405Z,63.50
2023-04-19T13:48:11.860Z,62.50
2023-04-19T13:50:39.347Z,61.60
2023-04-19T13:53:06.846Z,64.20
2023-04-19T13:55:34.673Z,62.90
2023-04-19T13:58:02.619Z,62.70
2023-04-19T14:00:30.322Z,62.00
2023-04-19T14:02:58.170Z,66.50
2023-04-19T14:05:25.825Z,65.20
2023-04-19T14:07:53.406Z,66.90
2023-04-19T14:10:20.867Z,64.70
2023-04-19T14:12:49.176Z,66.30
2023-04-19T14:15:16.628Z,64.30
2023-04-19T14:17:44.081Z,67.20
2023-04-19T14:20:12.730Z,63.70
2023-04-19T14:22:40.326Z,63.20
2023-04-19T14:25:08.058Z,63.90
2023-04-19T14:27:36.086Z,63.20
2023-04-19T14:30:03.844Z,65.60
2023-04-19T14:34:59.407Z,65.10
2023-04-19T14:37:26.904Z,63.00
2023-04-19T14:39:54.354Z,63.20
2023-04-19T14:42:23.088Z,65.40
2023-04-19T14:44:52.768Z,62.20
2023-04-19T14:47:21.581Z,61.60
2023-04-19T14:49:50.103Z,63.50
2023-04-19T14:52:17.599Z,59.70
2023-04-19T14:54:45.025Z,61.80
2023-04-19T14:57:13.834Z,61.20
2023-04-19T14:59:41.286Z,59.30
2023-04-19T15:02:10.829Z,58.60
2023-04-19T15:04:41.086Z,59.50
2023-04-19T15:07:09.147Z,61.40
2023-04-19T15:09:36.535Z,59.80
2023-04-19T15:12:04.066Z,58.50
2023-04-19T15:14:31.533Z,58.40
2023-04-19T15:16:58.925Z,59.00
2023-04-19T15:19:26.591Z,59.50
2023-04-19T15:21:54.292Z,60.20
2023-04-19T15:24:21.711Z,60.50
2023-04-19T15:26:49.124Z,60.30
2023-04-19T15:29:16.869Z,61.20
2023-04-19T15:31:44.458Z,59.20
2023-04-19T15:34:11.903Z,59.00
2023-04-19T15:36:42.660Z,59.70
2023-04-19T15:39:10.131Z,58.90
2023-04-19T15:41:37.528Z,58.50
2023-04-19T15:44:05.050Z,58.80
2023-04-19T15:46:32.588Z,59.80
2023-04-19T15:49:00.054Z,58.30
2023-04-19T15:51:27.627Z,58.30
2023-04-19T15:53:55.017Z,58.40
2023-04-19T15:56:22.443Z,60.20
2023-04-19T15:58:49.879Z,62.30
2023-04-19T16:01:19.115Z,61.30
2023-04-19T16:03:47.001Z,61.70
2023-04-19T16:06:14.594Z,60.80
2023-04-19T16:08:42.102Z,59.70
2023-04-19T16:11:09.610Z,61.60
2023-04-19T16:13:37.144Z,60.40
2023-04-19T16:16:04.950Z,60.80
2023-04-19T16:18:33.329Z,61.40
2023-04-19T16:21:00.908Z,63.50
2023-04-19T16:23:28.358Z,63.90
2023-04-19T16:25:56.873Z,60.80
2023-04-19T16:28:24.492Z,62.40
2023-04-19T16:30:52.274Z,60.80
2023-04-19T16:33:19.829Z,60.70
2023-04-19T16:35:48.137Z,61.60
2023-04-19T16:38:15.930Z,60.00
2023-04-19T16:40:46.445Z,60.80
2023-04-19T16:43:13.990Z,59.90
2023-04-19T16:45:43.127Z,60.50
2023-04-19T16:48:10.676Z,61.70
2023-04-19T16:50:38.328Z,62.90
2023-04-19T16:53:05.871Z,63.00
2023-04-19T16:55:33.674Z,64.30
2023-04-19T16:58:01.561Z,63.70
2023-04-19T17:00:29.407Z,64.20
2023-04-19T17:02:57.115Z,63.70
2023-04-19T17:05:24.847Z,64.50
2023-04-19T17:07:53.364Z,66.80
2023-04-19T17:10:22.416Z,65.50
2023-04-19T17:12:50.070Z,66.30
2023-04-19T17:15:17.630Z,64.40
2023-04-19T17:17:45.414Z,64.80
2023-04-19T17:20:15.487Z,64.30
2023-04-19T17:22:42.967Z,66.60
2023-04-19T17:25:10.561Z,66.30
2023-04-19T17:27:39.257Z,67.30
2023-04-19T17:30:07.868Z,66.80
2023-04-19T17:32:35.849Z,68.20
2023-04-19T17:35:04.844Z,68.10
2023-04-19T17:37:32.628Z,67.80
2023-04-19T17:40:00.582Z,68.50
2023-04-19T17:42:28.208Z,69.30
2023-04-19T17:44:55.849Z,69.90
2023-04-19T17:47:23.382Z,70.10
2023-04-19T17:49:51.264Z,70.80
2023-04-19T17:52:18.763Z,71.00
2023-04-19T17:54:46.403Z,70.30
2023-04-19T17:57:13.923Z,72.00
2023-04-19T17:59:41.391Z,71.90
2023-04-19T18:02:10.675Z,72.40
2023-04-19T18:04:39.631Z,72.20
2023-04-19T18:07:07.312Z,72.00
2023-04-19T18:09:34.784Z,72.10
2023-04-19T18:12:02.994Z,73.00
2023-04-19T18:14:30.530Z,72.70
2023-04-19T18:16:58.343Z,71.60
2023-04-19T18:19:27.240Z,71.80
2023-04-19T18:21:54.737Z,72.00
2023-04-19T18:24:22.530Z,73.20
2023-04-19T18:26:50.242Z,73.60
2023-04-19T18:29:19.356Z,75.10
2023-04-19T18:31:46.944Z,73.90
2023-04-19T18:34:14.768Z,74.40
2023-04-19T18:36:42.289Z,75.10
2023-04-19T18:39:10.358Z,74.20
2023-04-19T18:41:37.925Z,74.10
2023-04-19T18:46:36.047Z,74.50
2023-04-19T18:49:03.614Z,74.80
2023-04-19T18:51:31.452Z,76.00
2023-04-19T18:53:58.980Z,76.30
2023-04-19T18:57:01.311Z,77.40
2023-04-19T18:59:14.933Z,77.00
2023-04-19T19:01:45.378Z,76.50
2023-04-19T19:06:51.724Z,77.30
2023-04-19T19:09:22.729Z,77.90
2023-04-19T19:11:56.519Z,77.30
2023-04-19T19:14:24.514Z,77.80
2023-04-19T19:16:52.975Z,78.20
2023-04-19T19:19:22.698Z,77.70
2023-04-19T19:21:52.323Z,77.70
2023-04-19T19:24:19.881Z,78.30
2023-04-19T19:26:48.148Z,78.70
2023-04-19T19:29:16.750Z,78.70
2023-04-19T19:31:44.477Z,78.10
2023-04-19T19:34:24.085Z,77.40
2023-04-19T19:36:55.075Z,77.70
2023-04-19T19:39:22.818Z,77.80
2023-04-19T19:42:05.224Z,78.80
2023-04-19T19:44:33.811Z,79.00
2023-04-19T19:47:01.414Z,78.50
2023-04-19T19:49:28.969Z,77.90
2023-04-19T19:51:59.449Z,78.00
2023-04-19T19:54:27.587Z,77.30
2023-04-19T19:59:30.300Z,78.00
2023-04-19T20:01:59.663Z,78.00
2023-04-19T20:04:27.837Z,77.60
2023-04-19T20:09:28.027Z,75.80
2023-04-19T20:11:55.636Z,77.30
2023-04-19T20:14:24.544Z,76.10
2023-04-19T20:16:52.730Z,76.30
2023-04-19T20:19:20.507Z,75.30
2023-04-19T20:21:48.044Z,75.90
2023-04-19T20:24:15.741Z,75.90
2023-04-19T20:26:43.235Z,75.50
2023-04-19T20:29:10.950Z,75.50
2023-04-19T20:31:38.459Z,75.60
2023-04-19T20:34:05.989Z,76.70
2023-04-19T20:36:33.685Z,77.00
2023-04-19T20:39:06.539Z,75.70
2023-04-19T20:41:34.253Z,76.20
2023-04-19T20:44:02.516Z,76.20
2023-04-19T20:46:30.393Z,76.00
2023-04-19T20:48:58.297Z,75.80
2023-04-19T20:51:27.057Z,74.90
2023-04-19T20:53:54.857Z,75.30
2023-04-19T20:56:23.313Z,75.30
2023-04-19T20:58:50.868Z,75.20
2023-04-19T21:01:18.920Z,74.80
2023-04-19T21:03:46.980Z,75.00
2023-04-19T21:06:14.638Z,74.60
2023-04-19T21:08:42.316Z,75.00
2023-04-19T21:11:09.841Z,75.20
2023-04-19T21:13:37.503Z,75.60
2023-04-19T21:16:05.367Z,75.60
2023-04-19T21:18:32.983Z,76.00
2023-04-19T21:21:00.594Z,75.80
2023-04-19T21:23:28.157Z,76.10
2023-04-19T21:25:55.823Z,76.30
2023-04-19T21:28:25.079Z,76.00
2023-04-19T21:30:53.526Z,75.60
2023-04-19T21:33:21.039Z,76.40
2023-04-19T21:35:48.865Z,76.30
2023-04-19T21:38:16.676Z,76.00
2023-04-19T21:40:44.270Z,76.30
2023-04-19T21:43:11.974Z,76.80
2023-04-19T21:45:39.604Z,77.40
2023-04-19T21:48:07.554Z,77.80
2023-04-19T21:50:35.072Z,77.70
2023-04-19T21:53:02.678Z,77.80
2023-04-19T21:55:32.535Z,78.30
2023-04-19T21:58:02.098Z,78.30
2023-04-19T22:00:30.280Z,77.90
2023-04-19T22:02:58.037Z,78.50
2023-04-19T22:05:25.658Z,78.10
2023-04-19T22:07:53.238Z,79.30
2023-04-19T22:10:21.138Z,78.80
2023-04-19T22:12:57.929Z,79.00
2023-04-19T22:15:27.051Z,79.30
2023-04-19T22:17:54.592Z,79.50
2023-04-19T22:20:22.428Z,80.40
2023-04-19T22:22:50.225Z,79.50
2023-04-19T22:25:17.824Z,79.80
2023-04-19T22:27:45.563Z,80.20
2023-04-19T22:30:13.254Z,80.90
2023-04-19T22:32:40.800Z,81.10
2023-04-19T22:35:09.115Z,80.80
2023-04-19T22:37:37.060Z,81.40
2023-04-19T22:40:06.896Z,81.30
2023-04-19T22:42:34.761Z,81.30
2023-04-19T22:45:02.437Z,81.70
2023-04-19T22:47:31.233Z,82.00
2023-04-19T22:49:58.814Z,81.80
2023-04-19T22:52:26.604Z,81.70
2023-04-19T22:54:54.357Z,82.20
2023-04-19T22:57:21.907Z,82.00
2023-04-19T22:59:49.571Z,82.10
2023-04-19T23:02:17.293Z,81.80
2023-04-19T23:04:44.916Z,82.80
2023-04-19T23:07:12.523Z,82.40
2023-04-19T23:09:40.090Z,82.60
2023-04-19T23:12:08.938Z,83.10
2023-04-19T23:14:39.052Z,83.90
2023-04-19T23:17:08.020Z,82.50
2023-04-19T23:19:36.926Z,83.10
2023-04-19T23:22:04.537Z,83.50
2023-04-19T23:24:32.332Z,83.40
2023-04-19T23:27:00.076Z,83.50
2023-04-19T23:29:27.788Z,83.50
2023-04-19T23:31:55.497Z,83.50
2023-04-19T23:34:23.002Z,83.50
2023-04-19T23:36:51.077Z,83.40
2023-04-19T23:39:19.520Z,84.20
2023-04-19T23:41:47.374Z,84.40
2023-04-19T23:44:15.192Z,84.90
2023-04-19T23:46:42.675Z,85.20
2023-04-19T23:49:10.422Z,84.60
2023-04-19T23:51:38.222Z,85.50
2023-04-19T23:54:05.837Z,84.60
2023-04-19T23:56:33.473Z,85.20
2023-04-19T23:59:01.065Z,84.90
